sensor_id;sensor_type;location;lat;lon;timestamp;P1;durP1;ratioP1;P2;durP2;ratioP2
76123;SDS011;65173;48.066;20.976;2023-06-10T00:00:45;3.58;;;2.70;;
76123;SDS011;65173;48.066;20.976;2023-06-10T00:03:49;2.75;;;2.03;;
76123;SDS011;65173;48.066;20.976;2023-06-10T00:06:53;5.13;;;2.40;;
76123;SDS011;65173;48.066;20.976;2023-06-10T00:13:30;2.45;;;2.25;;
76123;SDS011;65173;48.066;20.976;2023-06-10T00:16:33;4.37;;;2.87;;
76123;SDS011;65173;48.066;20.976;2023-06-10T00:19:38;5.53;;;2.63;;
76123;SDS011;65173;48.066;20.976;2023-06-10T00:22:43;3.63;;;2.60;;
76123;SDS011;65173;48.066;20.976;2023-06-10T00:25:48;4.30;;;3.20;;
76123;SDS011;65173;48.066;20.976;2023-06-10T00:28:50;3.80;;;2.35;;
76123;SDS011;65173;48.066;20.976;2023-06-10T00:31:55;3.17;;;2.17;;
76123;SDS011;65173;48.066;20.976;2023-06-10T00:34:59;3.63;;;2.70;;
76123;SDS011;65173;48.066;20.976;2023-06-10T00:38:03;4.80;;;2.20;;
76123;SDS011;65173;48.066;20.976;2023-06-10T00:41:05;2.78;;;2.10;;
76123;SDS011;65173;48.066;20.976;2023-06-10T00:44:10;4.75;;;3.15;;
76123;SDS011;65173;48.066;20.976;2023-06-10T00:47:12;3.40;;;2.80;;
76123;SDS011;65173;48.066;20.976;2023-06-10T00:50:16;5.72;;;3.28;;
76123;SDS011;65173;48.066;20.976;2023-06-10T00:53:19;4.43;;;2.78;;
76123;SDS011;65173;48.066;20.976;2023-06-10T00:56:23;2.88;;;2.10;;
76123;SDS011;65173;48.066;20.976;2023-06-10T00:59:28;3.70;;;2.53;;
76123;SDS011;65173;48.066;20.976;2023-06-10T01:02:32;3.83;;;2.83;;
76123;SDS011;65173;48.066;20.976;2023-06-10T01:05:35;3.53;;;2.72;;
76123;SDS011;65173;48.066;20.976;2023-06-10T01:08:45;3.97;;;2.93;;
76123;SDS011;65173;48.066;20.976;2023-06-10T01:12:04;4.70;;;3.13;;
76123;SDS011;65173;48.066;20.976;2023-06-10T01:15:11;4.43;;;2.80;;
76123;SDS011;65173;48.066;20.976;2023-06-10T01:18:14;4.30;;;3.37;;
76123;SDS011;65173;48.066;20.976;2023-06-10T01:21:21;4.93;;;2.83;;
76123;SDS011;65173;48.066;20.976;2023-06-10T01:24:28;4.75;;;2.90;;
76123;SDS011;65173;48.066;20.976;2023-06-10T01:27:35;4.28;;;3.08;;
76123;SDS011;65173;48.066;20.976;2023-06-10T01:34:18;3.88;;;2.80;;
76123;SDS011;65173;48.066;20.976;2023-06-10T01:37:21;3.45;;;2.65;;
76123;SDS011;65173;48.066;20.976;2023-06-10T01:40:28;3.87;;;3.03;;
76123;SDS011;65173;48.066;20.976;2023-06-10T01:43:33;3.30;;;2.92;;
76123;SDS011;65173;48.066;20.976;2023-06-10T01:46:36;4.78;;;2.58;;
76123;SDS011;65173;48.066;20.976;2023-06-10T01:49:38;5.87;;;3.00;;
76123;SDS011;65173;48.066;20.976;2023-06-10T01:52:42;3.53;;;2.13;;
76123;SDS011;65173;48.066;20.976;2023-06-10T01:55:45;3.08;;;2.33;;
76123;SDS011;65173;48.066;20.976;2023-06-10T01:58:48;4.85;;;2.25;;
76123;SDS011;65173;48.066;20.976;2023-06-10T02:01:51;3.53;;;2.53;;
76123;SDS011;65173;48.066;20.976;2023-06-10T02:04:54;6.75;;;2.40;;
76123;SDS011;65173;48.066;20.976;2023-06-10T02:07:57;4.03;;;2.13;;
76123;SDS011;65173;48.066;20.976;2023-06-10T02:11:00;2.13;;;1.70;;
76123;SDS011;65173;48.066;20.976;2023-06-10T02:14:04;4.30;;;1.90;;
76123;SDS011;65173;48.066;20.976;2023-06-10T02:17:07;2.85;;;1.83;;
76123;SDS011;65173;48.066;20.976;2023-06-10T02:20:16;3.93;;;2.40;;
76123;SDS011;65173;48.066;20.976;2023-06-10T02:23:19;2.45;;;1.70;;
76123;SDS011;65173;48.066;20.976;2023-06-10T02:26:22;3.58;;;2.60;;
76123;SDS011;65173;48.066;20.976;2023-06-10T02:29:25;2.47;;;2.08;;
76123;SDS011;65173;48.066;20.976;2023-06-10T02:32:28;3.50;;;2.22;;
76123;SDS011;65173;48.066;20.976;2023-06-10T02:35:31;2.05;;;1.83;;
76123;SDS011;65173;48.066;20.976;2023-06-10T02:38:34;3.47;;;2.13;;
76123;SDS011;65173;48.066;20.976;2023-06-10T02:41:37;2.73;;;1.97;;
76123;SDS011;65173;48.066;20.976;2023-06-10T02:44:40;2.65;;;1.92;;
76123;SDS011;65173;48.066;20.976;2023-06-10T02:47:48;2.53;;;1.88;;
76123;SDS011;65173;48.066;20.976;2023-06-10T02:50:51;3.00;;;2.50;;
76123;SDS011;65173;48.066;20.976;2023-06-10T02:54:00;3.20;;;2.22;;
76123;SDS011;65173;48.066;20.976;2023-06-10T02:57:03;4.97;;;2.00;;
76123;SDS011;65173;48.066;20.976;2023-06-10T03:00:08;3.50;;;2.10;;
76123;SDS011;65173;48.066;20.976;2023-06-10T03:03:15;3.85;;;2.28;;
76123;SDS011;65173;48.066;20.976;2023-06-10T03:06:31;3.42;;;1.83;;
76123;SDS011;65173;48.066;20.976;2023-06-10T03:09:45;3.63;;;2.22;;
76123;SDS011;65173;48.066;20.976;2023-06-10T03:12:49;2.60;;;1.47;;
76123;SDS011;65173;48.066;20.976;2023-06-10T03:15:52;2.60;;;1.92;;
76123;SDS011;65173;48.066;20.976;2023-06-10T03:18:57;2.60;;;2.08;;
76123;SDS011;65173;48.066;20.976;2023-06-10T03:22:13;3.30;;;1.70;;
76123;SDS011;65173;48.066;20.976;2023-06-10T03:25:27;4.18;;;2.40;;
76123;SDS011;65173;48.066;20.976;2023-06-10T03:28:31;3.08;;;1.95;;
76123;SDS011;65173;48.066;20.976;2023-06-10T03:31:34;3.47;;;2.10;;
76123;SDS011;65173;48.066;20.976;2023-06-10T03:34:40;3.67;;;1.70;;
76123;SDS011;65173;48.066;20.976;2023-06-10T03:37:44;2.33;;;1.83;;
76123;SDS011;65173;48.066;20.976;2023-06-10T03:40:47;3.67;;;2.38;;
76123;SDS011;65173;48.066;20.976;2023-06-10T03:43:50;3.10;;;1.80;;
76123;SDS011;65173;48.066;20.976;2023-06-10T03:46:54;1.85;;;1.42;;
76123;SDS011;65173;48.066;20.976;2023-06-10T03:49:57;2.90;;;1.63;;
76123;SDS011;65173;48.066;20.976;2023-06-10T03:53:00;3.13;;;2.07;;
76123;SDS011;65173;48.066;20.976;2023-06-10T03:56:03;2.22;;;1.42;;
76123;SDS011;65173;48.066;20.976;2023-06-10T03:59:06;5.57;;;1.67;;
76123;SDS011;65173;48.066;20.976;2023-06-10T04:02:09;4.13;;;2.15;;
76123;SDS011;65173;48.066;20.976;2023-06-10T04:05:12;2.25;;;1.73;;
76123;SDS011;65173;48.066;20.976;2023-06-10T04:08:16;2.88;;;1.63;;
76123;SDS011;65173;48.066;20.976;2023-06-10T04:11:19;2.60;;;1.70;;
76123;SDS011;65173;48.066;20.976;2023-06-10T04:14:23;1.97;;;1.53;;
76123;SDS011;65173;48.066;20.976;2023-06-10T04:17:26;3.53;;;2.15;;
76123;SDS011;65173;48.066;20.976;2023-06-10T04:20:29;4.85;;;1.73;;
76123;SDS011;65173;48.066;20.976;2023-06-10T04:23:31;2.67;;;2.10;;
76123;SDS011;65173;48.066;20.976;2023-06-10T04:26:35;3.58;;;1.75;;
76123;SDS011;65173;48.066;20.976;2023-06-10T04:29:38;4.57;;;2.10;;
76123;SDS011;65173;48.066;20.976;2023-06-10T04:32:41;2.42;;;1.23;;
76123;SDS011;65173;48.066;20.976;2023-06-10T04:35:49;3.15;;;1.73;;
76123;SDS011;65173;48.066;20.976;2023-06-10T04:38:55;2.80;;;1.65;;
76123;SDS011;65173;48.066;20.976;2023-06-10T04:41:58;2.28;;;1.30;;
76123;SDS011;65173;48.066;20.976;2023-06-10T04:45:01;4.03;;;1.87;;
76123;SDS011;65173;48.066;20.976;2023-06-10T04:48:06;2.83;;;1.70;;
76123;SDS011;65173;48.066;20.976;2023-06-10T04:51:10;4.60;;;1.80;;
76123;SDS011;65173;48.066;20.976;2023-06-10T04:54:12;2.70;;;1.87;;
76123;SDS011;65173;48.066;20.976;2023-06-10T04:57:15;2.88;;;1.65;;
76123;SDS011;65173;48.066;20.976;2023-06-10T05:00:18;2.85;;;1.85;;
76123;SDS011;65173;48.066;20.976;2023-06-10T05:03:21;3.03;;;2.22;;
76123;SDS011;65173;48.066;20.976;2023-06-10T05:06:24;3.97;;;2.55;;
76123;SDS011;65173;48.066;20.976;2023-06-10T05:09:26;1.85;;;1.58;;
76123;SDS011;65173;48.066;20.976;2023-06-10T05:12:29;2.22;;;1.83;;
76123;SDS011;65173;48.066;20.976;2023-06-10T05:15:32;4.00;;;2.40;;
76123;SDS011;65173;48.066;20.976;2023-06-10T05:18:35;3.47;;;1.85;;
76123;SDS011;65173;48.066;20.976;2023-06-10T05:21:39;2.35;;;1.90;;
76123;SDS011;65173;48.066;20.976;2023-06-10T05:24:41;4.40;;;1.73;;
76123;SDS011;65173;48.066;20.976;2023-06-10T05:27:46;1.92;;;1.67;;
76123;SDS011;65173;48.066;20.976;2023-06-10T05:30:48;3.88;;;2.40;;
76123;SDS011;65173;48.066;20.976;2023-06-10T05:33:52;2.97;;;2.10;;
76123;SDS011;65173;48.066;20.976;2023-06-10T05:36:55;2.67;;;2.20;;
76123;SDS011;65173;48.066;20.976;2023-06-10T05:39:57;2.25;;;2.08;;
76123;SDS011;65173;48.066;20.976;2023-06-10T05:43:00;3.17;;;2.22;;
76123;SDS011;65173;48.066;20.976;2023-06-10T05:46:02;1.63;;;1.43;;
76123;SDS011;65173;48.066;20.976;2023-06-10T05:49:05;2.83;;;1.90;;
76123;SDS011;65173;48.066;20.976;2023-06-10T05:52:08;2.78;;;2.03;;
76123;SDS011;65173;48.066;20.976;2023-06-10T05:55:10;1.93;;;1.53;;
76123;SDS011;65173;48.066;20.976;2023-06-10T05:58:13;3.03;;;1.77;;
76123;SDS011;65173;48.066;20.976;2023-06-10T06:01:16;2.63;;;2.42;;
76123;SDS011;65173;48.066;20.976;2023-06-10T06:04:19;2.72;;;2.17;;
76123;SDS011;65173;48.066;20.976;2023-06-10T06:07:22;2.58;;;2.17;;
76123;SDS011;65173;48.066;20.976;2023-06-10T06:10:25;2.22;;;1.70;;
76123;SDS011;65173;48.066;20.976;2023-06-10T06:13:28;3.45;;;2.20;;
76123;SDS011;65173;48.066;20.976;2023-06-10T06:16:31;2.77;;;1.90;;
76123;SDS011;65173;48.066;20.976;2023-06-10T06:19:34;1.95;;;1.77;;
76123;SDS011;65173;48.066;20.976;2023-06-10T06:22:37;2.35;;;2.15;;
76123;SDS011;65173;48.066;20.976;2023-06-10T06:25:40;2.23;;;1.67;;
76123;SDS011;65173;48.066;20.976;2023-06-10T06:28:43;3.88;;;2.22;;
76123;SDS011;65173;48.066;20.976;2023-06-10T06:31:46;3.75;;;2.08;;
76123;SDS011;65173;48.066;20.976;2023-06-10T06:34:48;2.90;;;2.22;;
76123;SDS011;65173;48.066;20.976;2023-06-10T06:37:56;2.45;;;1.90;;
76123;SDS011;65173;48.066;20.976;2023-06-10T06:41:02;2.70;;;2.10;;
76123;SDS011;65173;48.066;20.976;2023-06-10T06:44:08;2.55;;;2.22;;
76123;SDS011;65173;48.066;20.976;2023-06-10T06:47:16;2.07;;;1.77;;
76123;SDS011;65173;48.066;20.976;2023-06-10T06:50:22;4.20;;;2.40;;
76123;SDS011;65173;48.066;20.976;2023-06-10T06:53:25;4.15;;;2.42;;
76123;SDS011;65173;48.066;20.976;2023-06-10T06:56:29;3.30;;;2.17;;
76123;SDS011;65173;48.066;20.976;2023-06-10T06:59:33;2.45;;;1.98;;
76123;SDS011;65173;48.066;20.976;2023-06-10T07:02:35;3.10;;;2.55;;
76123;SDS011;65173;48.066;20.976;2023-06-10T07:05:38;4.28;;;2.10;;
76123;SDS011;65173;48.066;20.976;2023-06-10T07:08:41;2.15;;;1.92;;
76123;SDS011;65173;48.066;20.976;2023-06-10T07:11:44;2.38;;;2.10;;
76123;SDS011;65173;48.066;20.976;2023-06-10T07:14:47;2.60;;;2.00;;
76123;SDS011;65173;48.066;20.976;2023-06-10T07:17:50;2.67;;;2.47;;
76123;SDS011;65173;48.066;20.976;2023-06-10T07:20:53;2.60;;;1.90;;
76123;SDS011;65173;48.066;20.976;2023-06-10T07:23:57;2.42;;;2.05;;
76123;SDS011;65173;48.066;20.976;2023-06-10T07:27:00;2.93;;;2.50;;
76123;SDS011;65173;48.066;20.976;2023-06-10T07:30:04;2.92;;;2.13;;
76123;SDS011;65173;48.066;20.976;2023-06-10T07:33:10;2.40;;;2.05;;
76123;SDS011;65173;48.066;20.976;2023-06-10T07:36:13;2.53;;;1.88;;
76123;SDS011;65173;48.066;20.976;2023-06-10T07:39:16;2.33;;;2.13;;
76123;SDS011;65173;48.066;20.976;2023-06-10T07:42:18;2.42;;;2.05;;
76123;SDS011;65173;48.066;20.976;2023-06-10T07:45:21;2.20;;;2.00;;
76123;SDS011;65173;48.066;20.976;2023-06-10T07:48:24;2.10;;;1.90;;
76123;SDS011;65173;48.066;20.976;2023-06-10T07:51:27;2.85;;;1.95;;
76123;SDS011;65173;48.066;20.976;2023-06-10T07:54:30;2.20;;;1.73;;
76123;SDS011;65173;48.066;20.976;2023-06-10T07:57:32;2.23;;;1.90;;
76123;SDS011;65173;48.066;20.976;2023-06-10T08:00:38;1.90;;;1.77;;
76123;SDS011;65173;48.066;20.976;2023-06-10T08:03:41;2.90;;;2.22;;
76123;SDS011;65173;48.066;20.976;2023-06-10T08:06:45;1.95;;;1.83;;
76123;SDS011;65173;48.066;20.976;2023-06-10T08:09:47;1.90;;;1.80;;
76123;SDS011;65173;48.066;20.976;2023-06-10T08:12:50;2.25;;;1.85;;
76123;SDS011;65173;48.066;20.976;2023-06-10T08:15:53;2.20;;;2.00;;
76123;SDS011;65173;48.066;20.976;2023-06-10T08:18:57;3.60;;;2.03;;
76123;SDS011;65173;48.066;20.976;2023-06-10T08:21:59;1.88;;;1.77;;
76123;SDS011;65173;48.066;20.976;2023-06-10T08:25:02;2.10;;;1.90;;
76123;SDS011;65173;48.066;20.976;2023-06-10T08:28:05;2.33;;;2.13;;
76123;SDS011;65173;48.066;20.976;2023-06-10T08:31:08;2.25;;;1.85;;
76123;SDS011;65173;48.066;20.976;2023-06-10T08:34:11;1.88;;;1.70;;
76123;SDS011;65173;48.066;20.976;2023-06-10T08:37:14;2.20;;;2.00;;
76123;SDS011;65173;48.066;20.976;2023-06-10T08:40:16;2.28;;;1.58;;
76123;SDS011;65173;48.066;20.976;2023-06-10T08:43:24;2.38;;;1.98;;
76123;SDS011;65173;48.066;20.976;2023-06-10T08:46:39;2.25;;;2.00;;
76123;SDS011;65173;48.066;20.976;2023-06-10T08:49:47;2.43;;;1.70;;
76123;SDS011;65173;48.066;20.976;2023-06-10T08:52:50;2.08;;;1.95;;
76123;SDS011;65173;48.066;20.976;2023-06-10T08:55:56;2.13;;;1.80;;
76123;SDS011;65173;48.066;20.976;2023-06-10T08:59:02;2.20;;;2.00;;
76123;SDS011;65173;48.066;20.976;2023-06-10T09:02:05;1.70;;;1.60;;
76123;SDS011;65173;48.066;20.976;2023-06-10T09:05:09;2.67;;;1.88;;
76123;SDS011;65173;48.066;20.976;2023-06-10T09:08:12;2.50;;;2.30;;
76123;SDS011;65173;48.066;20.976;2023-06-10T09:11:18;2.47;;;2.28;;
76123;SDS011;65173;48.066;20.976;2023-06-10T09:14:20;2.25;;;2.05;;
76123;SDS011;65173;48.066;20.976;2023-06-10T09:17:23;2.75;;;2.10;;
76123;SDS011;65173;48.066;20.976;2023-06-10T09:20:26;2.00;;;1.80;;
76123;SDS011;65173;48.066;20.976;2023-06-10T09:23:29;2.60;;;2.40;;
76123;SDS011;65173;48.066;20.976;2023-06-10T09:26:33;1.77;;;1.67;;
76123;SDS011;65173;48.066;20.976;2023-06-10T09:29:45;2.00;;;1.17;;
76123;SDS011;65173;48.066;20.976;2023-06-10T09:32:58;3.10;;;2.00;;
76123;SDS011;65173;48.066;20.976;2023-06-10T09:36:03;2.13;;;1.92;;
76123;SDS011;65173;48.066;20.976;2023-06-10T09:39:13;1.70;;;1.60;;
76123;SDS011;65173;48.066;20.976;2023-06-10T09:42:19;1.85;;;1.75;;
76123;SDS011;65173;48.066;20.976;2023-06-10T09:45:22;3.85;;;2.20;;
76123;SDS011;65173;48.066;20.976;2023-06-10T09:48:26;2.17;;;1.98;;
76123;SDS011;65173;48.066;20.976;2023-06-10T09:51:28;1.60;;;1.50;;
76123;SDS011;65173;48.066;20.976;2023-06-10T09:54:31;1.95;;;1.75;;
76123;SDS011;65173;48.066;20.976;2023-06-10T09:57:34;2.17;;;1.83;;
76123;SDS011;65173;48.066;20.976;2023-06-10T10:00:38;2.10;;;1.90;;
76123;SDS011;65173;48.066;20.976;2023-06-10T10:03:47;2.28;;;1.92;;
76123;SDS011;65173;48.066;20.976;2023-06-10T10:06:51;2.38;;;1.50;;
76123;SDS011;65173;48.066;20.976;2023-06-10T10:09:54;1.90;;;1.80;;
76123;SDS011;65173;48.066;20.976;2023-06-10T10:12:56;2.30;;;2.10;;
76123;SDS011;65173;48.066;20.976;2023-06-10T10:16:01;2.55;;;1.83;;
76123;SDS011;65173;48.066;20.976;2023-06-10T10:19:12;2.58;;;2.38;;
76123;SDS011;65173;48.066;20.976;2023-06-10T10:22:39;2.10;;;1.83;;
76123;SDS011;65173;48.066;20.976;2023-06-10T10:25:43;2.63;;;2.40;;
76123;SDS011;65173;48.066;20.976;2023-06-10T10:28:56;1.70;;;1.60;;
76123;SDS011;65173;48.066;20.976;2023-06-10T10:32:07;2.33;;;1.80;;
76123;SDS011;65173;48.066;20.976;2023-06-10T10:35:14;2.42;;;1.77;;
76123;SDS011;65173;48.066;20.976;2023-06-10T10:38:23;1.95;;;1.85;;
76123;SDS011;65173;48.066;20.976;2023-06-10T10:41:26;1.95;;;1.80;;
76123;SDS011;65173;48.066;20.976;2023-06-10T10:44:30;3.03;;;2.33;;
76123;SDS011;65173;48.066;20.976;2023-06-10T10:47:34;2.20;;;2.10;;
76123;SDS011;65173;48.066;20.976;2023-06-10T10:50:39;1.80;;;1.70;;
76123;SDS011;65173;48.066;20.976;2023-06-10T10:53:42;2.10;;;2.00;;
76123;SDS011;65173;48.066;20.976;2023-06-10T11:00:11;1.83;;;1.58;;
76123;SDS011;65173;48.066;20.976;2023-06-10T11:03:15;2.10;;;1.87;;
76123;SDS011;65173;48.066;20.976;2023-06-10T11:06:19;2.08;;;1.92;;
76123;SDS011;65173;48.066;20.976;2023-06-10T11:09:25;2.05;;;1.95;;
76123;SDS011;65173;48.066;20.976;2023-06-10T11:12:50;2.28;;;2.15;;
76123;SDS011;65173;48.066;20.976;2023-06-10T11:15:57;1.67;;;1.58;;
76123;SDS011;65173;48.066;20.976;2023-06-10T11:19:01;1.98;;;1.70;;
76123;SDS011;65173;48.066;20.976;2023-06-10T11:22:05;2.60;;;2.40;;
76123;SDS011;65173;48.066;20.976;2023-06-10T11:25:13;1.77;;;1.67;;
76123;SDS011;65173;48.066;20.976;2023-06-10T11:28:17;1.70;;;1.60;;
76123;SDS011;65173;48.066;20.976;2023-06-10T11:31:22;2.25;;;1.42;;
76123;SDS011;65173;48.066;20.976;2023-06-10T11:34:29;2.07;;;1.60;;
76123;SDS011;65173;48.066;20.976;2023-06-10T11:37:31;1.60;;;1.48;;
76123;SDS011;65173;48.066;20.976;2023-06-10T11:40:34;1.80;;;1.70;;
76123;SDS011;65173;48.066;20.976;2023-06-10T11:43:40;2.15;;;1.95;;
76123;SDS011;65173;48.066;20.976;2023-06-10T11:46:47;2.03;;;1.83;;
76123;SDS011;65173;48.066;20.976;2023-06-10T11:49:57;1.83;;;1.73;;
76123;SDS011;65173;48.066;20.976;2023-06-10T11:53:01;1.90;;;1.45;;
76123;SDS011;65173;48.066;20.976;2023-06-10T11:56:04;1.70;;;1.60;;
76123;SDS011;65173;48.066;20.976;2023-06-10T11:59:06;4.07;;;1.92;;
76123;SDS011;65173;48.066;20.976;2023-06-10T12:02:14;2.63;;;1.88;;
76123;SDS011;65173;48.066;20.976;2023-06-10T12:05:18;1.90;;;1.73;;
76123;SDS011;65173;48.066;20.976;2023-06-10T12:08:21;2.38;;;1.80;;
76123;SDS011;65173;48.066;20.976;2023-06-10T12:11:25;1.92;;;1.42;;
76123;SDS011;65173;48.066;20.976;2023-06-10T12:17:58;3.58;;;1.77;;
76123;SDS011;65173;48.066;20.976;2023-06-10T12:21:01;2.28;;;2.10;;
76123;SDS011;65173;48.066;20.976;2023-06-10T12:24:07;4.05;;;1.98;;
76123;SDS011;65173;48.066;20.976;2023-06-10T12:27:11;1.60;;;1.50;;
76123;SDS011;65173;48.066;20.976;2023-06-10T12:30:18;2.20;;;2.00;;
76123;SDS011;65173;48.066;20.976;2023-06-10T12:33:22;3.10;;;1.63;;
76123;SDS011;65173;48.066;20.976;2023-06-10T12:36:25;1.80;;;1.63;;
76123;SDS011;65173;48.066;20.976;2023-06-10T12:39:28;1.65;;;1.38;;
76123;SDS011;65173;48.066;20.976;2023-06-10T12:42:31;1.90;;;1.58;;
76123;SDS011;65173;48.066;20.976;2023-06-10T12:45:37;3.10;;;2.35;;
76123;SDS011;65173;48.066;20.976;2023-06-10T12:48:51;1.60;;;1.40;;
76123;SDS011;65173;48.066;20.976;2023-06-10T12:51:54;2.50;;;2.30;;
76123;SDS011;65173;48.066;20.976;2023-06-10T12:54:57;1.70;;;1.60;;
76123;SDS011;65173;48.066;20.976;2023-06-10T12:58:00;1.63;;;1.53;;
76123;SDS011;65173;48.066;20.976;2023-06-10T13:01:04;2.10;;;1.90;;
76123;SDS011;65173;48.066;20.976;2023-06-10T13:04:07;2.00;;;1.90;;
76123;SDS011;65173;48.066;20.976;2023-06-10T13:07:09;4.03;;;2.33;;
76123;SDS011;65173;48.066;20.976;2023-06-10T13:10:13;1.70;;;1.60;;
76123;SDS011;65173;48.066;20.976;2023-06-10T13:13:16;2.08;;;1.98;;
76123;SDS011;65173;48.066;20.976;2023-06-10T13:16:19;2.17;;;1.92;;
76123;SDS011;65173;48.066;20.976;2023-06-10T13:19:22;3.57;;;2.00;;
76123;SDS011;65173;48.066;20.976;2023-06-10T13:22:26;2.13;;;1.90;;
76123;SDS011;65173;48.066;20.976;2023-06-10T13:25:29;2.05;;;1.58;;
76123;SDS011;65173;48.066;20.976;2023-06-10T13:28:32;4.07;;;1.70;;
76123;SDS011;65173;48.066;20.976;2023-06-10T13:31:37;1.85;;;1.60;;
76123;SDS011;65173;48.066;20.976;2023-06-10T13:34:39;2.60;;;2.08;;
76123;SDS011;65173;48.066;20.976;2023-06-10T13:37:42;1.52;;;1.42;;
76123;SDS011;65173;48.066;20.976;2023-06-10T13:40:45;2.47;;;1.70;;
76123;SDS011;65173;48.066;20.976;2023-06-10T13:43:48;1.50;;;1.40;;
76123;SDS011;65173;48.066;20.976;2023-06-10T13:46:50;1.38;;;1.27;;
76123;SDS011;65173;48.066;20.976;2023-06-10T13:49:53;1.70;;;1.57;;
76123;SDS011;65173;48.066;20.976;2023-06-10T13:52:56;1.15;;;1.08;;
76123;SDS011;65173;48.066;20.976;2023-06-10T13:55:59;1.75;;;1.58;;
76123;SDS011;65173;48.066;20.976;2023-06-10T13:59:02;1.43;;;1.33;;
76123;SDS011;65173;48.066;20.976;2023-06-10T14:02:05;1.55;;;1.42;;
76123;SDS011;65173;48.066;20.976;2023-06-10T14:05:08;1.42;;;1.40;;
76123;SDS011;65173;48.066;20.976;2023-06-10T14:08:11;1.88;;;1.75;;
76123;SDS011;65173;48.066;20.976;2023-06-10T14:11:15;1.30;;;1.20;;
76123;SDS011;65173;48.066;20.976;2023-06-10T14:14:18;2.38;;;1.67;;
76123;SDS011;65173;48.066;20.976;2023-06-10T14:17:21;1.98;;;1.60;;
76123;SDS011;65173;48.066;20.976;2023-06-10T14:20:28;2.00;;;1.87;;
76123;SDS011;65173;48.066;20.976;2023-06-10T14:23:33;1.42;;;1.30;;
76123;SDS011;65173;48.066;20.976;2023-06-10T14:26:36;3.00;;;1.83;;
76123;SDS011;65173;48.066;20.976;2023-06-10T14:29:39;1.73;;;1.63;;
76123;SDS011;65173;48.066;20.976;2023-06-10T14:32:42;1.70;;;1.60;;
76123;SDS011;65173;48.066;20.976;2023-06-10T14:35:45;1.80;;;1.38;;
76123;SDS011;65173;48.066;20.976;2023-06-10T14:38:48;1.30;;;1.20;;
76123;SDS011;65173;48.066;20.976;2023-06-10T14:41:51;1.83;;;1.73;;
76123;SDS011;65173;48.066;20.976;2023-06-10T14:44:55;1.60;;;1.50;;
76123;SDS011;65173;48.066;20.976;2023-06-10T14:47:57;2.97;;;1.95;;
76123;SDS011;65173;48.066;20.976;2023-06-10T14:51:00;1.77;;;1.67;;
76123;SDS011;65173;48.066;20.976;2023-06-10T14:54:02;1.90;;;1.80;;
76123;SDS011;65173;48.066;20.976;2023-06-10T14:57:05;1.90;;;1.63;;
76123;SDS011;65173;48.066;20.976;2023-06-10T15:00:09;1.47;;;1.37;;
76123;SDS011;65173;48.066;20.976;2023-06-10T15:03:12;1.98;;;1.77;;
76123;SDS011;65173;48.066;20.976;2023-06-10T15:06:15;1.23;;;1.10;;
76123;SDS011;65173;48.066;20.976;2023-06-10T15:09:22;1.27;;;0.90;;
76123;SDS011;65173;48.066;20.976;2023-06-10T15:12:25;1.17;;;1.08;;
76123;SDS011;65173;48.066;20.976;2023-06-10T15:15:30;1.20;;;1.10;;
76123;SDS011;65173;48.066;20.976;2023-06-10T15:18:32;1.50;;;1.40;;
76123;SDS011;65173;48.066;20.976;2023-06-10T15:21:35;1.80;;;1.40;;
76123;SDS011;65173;48.066;20.976;2023-06-10T15:24:38;4.22;;;1.30;;
76123;SDS011;65173;48.066;20.976;2023-06-10T15:27:41;1.45;;;1.33;;
76123;SDS011;65173;48.066;20.976;2023-06-10T15:30:44;1.30;;;1.20;;
76123;SDS011;65173;48.066;20.976;2023-06-10T15:33:47;1.73;;;1.63;;
76123;SDS011;65173;48.066;20.976;2023-06-10T15:36:50;2.13;;;1.20;;
76123;SDS011;65173;48.066;20.976;2023-06-10T15:39:52;1.42;;;1.33;;
76123;SDS011;65173;48.066;20.976;2023-06-10T15:42:55;3.35;;;1.10;;
76123;SDS011;65173;48.066;20.976;2023-06-10T15:45:58;3.97;;;1.77;;
76123;SDS011;65173;48.066;20.976;2023-06-10T15:49:01;1.52;;;1.42;;
76123;SDS011;65173;48.066;20.976;2023-06-10T15:52:05;1.53;;;1.43;;
76123;SDS011;65173;48.066;20.976;2023-06-10T15:55:08;1.42;;;1.17;;
76123;SDS011;65173;48.066;20.976;2023-06-10T15:58:11;1.92;;;1.45;;
76123;SDS011;65173;48.066;20.976;2023-06-10T16:01:14;1.80;;;1.70;;
76123;SDS011;65173;48.066;20.976;2023-06-10T16:04:17;4.18;;;1.30;;
76123;SDS011;65173;48.066;20.976;2023-06-10T16:07:20;2.17;;;1.60;;
76123;SDS011;65173;48.066;20.976;2023-06-10T16:10:22;2.42;;;1.48;;
76123;SDS011;65173;48.066;20.976;2023-06-10T16:13:26;2.17;;;2.00;;
76123;SDS011;65173;48.066;20.976;2023-06-10T16:16:29;1.65;;;1.55;;
76123;SDS011;65173;48.066;20.976;2023-06-10T16:19:31;2.30;;;1.65;;
76123;SDS011;65173;48.066;20.976;2023-06-10T16:22:34;1.93;;;1.70;;
76123;SDS011;65173;48.066;20.976;2023-06-10T16:25:37;5.78;;;1.77;;
76123;SDS011;65173;48.066;20.976;2023-06-10T16:28:41;2.63;;;1.90;;
76123;SDS011;65173;48.066;20.976;2023-06-10T16:31:44;2.50;;;1.87;;
76123;SDS011;65173;48.066;20.976;2023-06-10T16:34:47;4.60;;;2.33;;
76123;SDS011;65173;48.066;20.976;2023-06-10T16:37:49;2.78;;;2.58;;
76123;SDS011;65173;48.066;20.976;2023-06-10T16:40:52;2.55;;;1.83;;
76123;SDS011;65173;48.066;20.976;2023-06-10T16:43:55;3.88;;;2.50;;
76123;SDS011;65173;48.066;20.976;2023-06-10T16:46:58;2.33;;;1.98;;
76123;SDS011;65173;48.066;20.976;2023-06-10T16:50:01;3.00;;;2.55;;
76123;SDS011;65173;48.066;20.976;2023-06-10T16:53:04;2.60;;;2.37;;
76123;SDS011;65173;48.066;20.976;2023-06-10T16:56:07;2.03;;;1.83;;
76123;SDS011;65173;48.066;20.976;2023-06-10T16:59:09;2.17;;;1.98;;
76123;SDS011;65173;48.066;20.976;2023-06-10T17:02:12;2.17;;;1.93;;
76123;SDS011;65173;48.066;20.976;2023-06-10T17:05:15;1.73;;;1.42;;
76123;SDS011;65173;48.066;20.976;2023-06-10T17:08:17;1.85;;;1.58;;
76123;SDS011;65173;48.066;20.976;2023-06-10T17:11:20;1.80;;;1.70;;
76123;SDS011;65173;48.066;20.976;2023-06-10T17:14:23;2.17;;;1.98;;
76123;SDS011;65173;48.066;20.976;2023-06-10T17:17:27;1.58;;;1.48;;
76123;SDS011;65173;48.066;20.976;2023-06-10T17:20:30;2.05;;;1.65;;
76123;SDS011;65173;48.066;20.976;2023-06-10T17:23:33;3.53;;;1.90;;
76123;SDS011;65173;48.066;20.976;2023-06-10T17:26:36;2.13;;;1.90;;
76123;SDS011;65173;48.066;20.976;2023-06-10T17:29:38;3.67;;;2.05;;
76123;SDS011;65173;48.066;20.976;2023-06-10T17:32:41;6.83;;;2.97;;
76123;SDS011;65173;48.066;20.976;2023-06-10T17:35:44;3.65;;;3.28;;
76123;SDS011;65173;48.066;20.976;2023-06-10T17:38:47;5.07;;;3.78;;
76123;SDS011;65173;48.066;20.976;2023-06-10T17:41:49;5.03;;;3.42;;
76123;SDS011;65173;48.066;20.976;2023-06-10T17:44:53;4.70;;;3.72;;
76123;SDS011;65173;48.066;20.976;2023-06-10T17:47:55;5.07;;;3.90;;
76123;SDS011;65173;48.066;20.976;2023-06-10T17:50:58;4.85;;;4.07;;
76123;SDS011;65173;48.066;20.976;2023-06-10T17:54:01;5.13;;;4.17;;
76123;SDS011;65173;48.066;20.976;2023-06-10T17:57:04;6.05;;;4.80;;
76123;SDS011;65173;48.066;20.976;2023-06-10T18:00:07;5.20;;;4.15;;
76123;SDS011;65173;48.066;20.976;2023-06-10T18:03:10;4.27;;;3.87;;
76123;SDS011;65173;48.066;20.976;2023-06-10T18:06:13;4.53;;;3.67;;
76123;SDS011;65173;48.066;20.976;2023-06-10T18:09:16;4.68;;;2.65;;
76123;SDS011;65173;48.066;20.976;2023-06-10T18:12:18;3.67;;;2.75;;
76123;SDS011;65173;48.066;20.976;2023-06-10T18:15:21;2.83;;;2.53;;
76123;SDS011;65173;48.066;20.976;2023-06-10T18:18:24;2.63;;;2.20;;
76123;SDS011;65173;48.066;20.976;2023-06-10T18:21:27;2.70;;;2.10;;
76123;SDS011;65173;48.066;20.976;2023-06-10T18:24:29;3.77;;;2.10;;